Time;durP1;ratioP1;P1;durP2;ratioP2;P2;SDS_P1;SDS_P2;PMS_P1;PMS_P2;Temp;Humidity;BMP_temperature;BMP_pressure;BME280_temperature;BME280_humidity;BME280_pressure;Samples;Min_cycle;Max_cycle;Signal;HPM_P1;HPM_P2
2023/11/14 00:02:00;;;;;;;11.97;3.53;;;10.90;99.90;;;;;;5055327;28;20977;-66
2023/11/14 00:04:28;;;;;;;15.70;4.10;;;10.90;99.90;;;;;;5055175;28;20456;-65
2023/11/14 00:06:56;;;;;;;10.37;3.50;;;11.00;99.90;;;;;;5062817;28;20443;-65
2023/11/14 00:09:23;;;;;;;16.80;5.40;;;11.00;99.90;;;;;;5058549;28;20452;-65
2023/11/14 00:11:50;;;;;;;12.37;3.33;;;11.10;99.90;;;;;;5054484;28;21023;-64
2023/11/14 00:14:17;;;;;;;10.60;3.53;;;11.20;99.90;;;;;;5054182;28;20531;-65
2023/11/14 00:16:44;;;;;;;14.40;3.60;;;11.20;99.90;;;;;;5054509;28;20570;-66
2023/11/14 00:19:11;;;;;;;16.87;3.60;;;11.20;99.90;;;;;;5054486;28;20483;-65
2023/11/14 00:21:38;;;;;;;15.30;4.40;;;11.10;99.90;;;;;;5054423;28;20650;-66
2023/11/14 00:24:09;;;;;;;16.67;4.13;;;11.10;99.90;;;;;;5054128;28;20826;-66
2023/11/14 00:26:36;;;;;;;10.47;3.67;;;11.10;99.90;;;;;;5054614;28;20855;-64
2023/11/14 00:29:02;;;;;;;13.33;3.73;;;11.10;99.90;;;;;;5058444;28;20454;-66
2023/11/14 00:31:29;;;;;;;21.47;3.77;;;11.10;99.90;;;;;;5060383;28;20832;-65
2023/11/14 00:33:56;;;;;;;14.53;3.47;;;11.10;99.90;;;;;;5062118;28;20440;-64
2023/11/14 00:36:23;;;;;;;16.83;4.70;;;11.00;99.90;;;;;;5061977;28;20530;-66
2023/11/14 00:38:49;;;;;;;10.47;3.83;;;11.00;99.90;;;;;;5060611;28;20486;-65
2023/11/14 00:41:18;;;;;;;17.13;4.03;;;11.10;99.90;;;;;;5059968;28;20450;-65
2023/11/14 00:43:45;;;;;;;13.90;4.77;;;11.10;99.90;;;;;;5059206;28;20444;-66
2023/11/14 00:46:12;;;;;;;14.73;4.30;;;11.20;99.90;;;;;;5059122;28;20458;-65
2023/11/14 00:48:39;;;;;;;14.50;4.10;;;11.20;99.90;;;;;;5058891;28;20486;-64
2023/11/14 00:51:06;;;;;;;15.23;4.37;;;11.20;99.90;;;;;;5058631;28;20440;-65
2023/11/14 00:53:33;;;;;;;13.03;3.63;;;11.20;99.90;;;;;;5058190;28;20470;-65
2023/11/14 00:55:59;;;;;;;13.60;4.23;;;11.20;99.90;;;;;;5057647;28;20463;-66
2023/11/14 00:58:28;;;;;;;16.97;4.10;;;11.20;99.90;;;;;;5057502;28;20472;-66
2023/11/14 01:00:55;;;;;;;19.63;4.43;;;11.10;99.90;;;;;;5057455;28;20792;-64
2023/11/14 01:03:24;;;;;;;16.13;4.30;;;11.20;99.90;;;;;;5057212;28;20893;-65
2023/11/14 01:05:52;;;;;;;17.40;4.20;;;11.20;99.90;;;;;;5057965;28;20470;-65
2023/11/14 01:08:19;;;;;;;14.23;4.47;;;11.20;99.90;;;;;;5057711;28;20480;-65
2023/11/14 01:10:47;;;;;;;12.57;4.60;;;11.20;99.90;;;;;;5057456;28;20459;-66
2023/11/14 01:13:14;;;;;;;18.83;4.13;;;11.20;99.90;;;;;;5057628;28;20551;-65
2023/11/14 01:15:42;;;;;;;16.03;4.77;;;11.20;99.90;;;;;;5057385;28;20440;-65
2023/11/14 01:18:09;;;;;;;14.87;4.40;;;11.20;99.90;;;;;;5057708;28;20479;-66
2023/11/14 01:20:36;;;;;;;11.03;3.77;;;11.20;99.90;;;;;;5057912;28;20524;-64
2023/11/14 01:23:03;;;;;;;17.33;4.47;;;11.10;99.90;;;;;;5058066;28;20989;-64
2023/11/14 01:25:30;;;;;;;14.63;4.13;;;11.20;99.90;;;;;;5058443;28;20451;-65
2023/11/14 01:27:57;;;;;;;12.60;5.07;;;11.20;99.90;;;;;;5057974;28;20527;-67
2023/11/14 01:30:24;;;;;;;17.53;4.50;;;11.10;99.90;;;;;;5057243;28;20907;-66
2023/11/14 01:32:52;;;;;;;15.43;5.37;;;11.20;99.90;;;;;;5057568;28;20460;-64
2023/11/14 01:35:19;;;;;;;14.67;4.23;;;11.20;99.90;;;;;;5057530;28;20513;-66
2023/11/14 01:37:46;;;;;;;14.73;3.80;;;11.30;99.90;;;;;;5057413;28;20483;-67
2023/11/14 01:40:13;;;;;;;23.00;4.90;;;11.30;99.90;;;;;;5056279;28;20428;-65
2023/11/14 01:42:40;;;;;;;15.57;5.03;;;11.40;99.90;;;;;;5056417;28;21001;-64
2023/11/14 01:45:07;;;;;;;18.80;4.73;;;11.40;99.90;;;;;;5056342;28;20944;-66
2023/11/14 01:47:34;;;;;;;12.20;3.00;;;11.40;99.90;;;;;;5056528;28;20440;-65
2023/11/14 01:50:03;;;;;;;15.30;3.67;;;11.40;99.90;;;;;;5056219;28;20448;-65
2023/11/14 01:52:30;;;;;;;17.83;4.50;;;11.40;99.90;;;;;;5056152;28;20812;-66
2023/11/14 01:54:57;;;;;;;11.47;3.60;;;11.40;99.90;;;;;;5056332;28;20436;-65
2023/11/14 01:57:23;;;;;;;13.07;3.83;;;11.40;99.90;;;;;;5056668;28;20475;-65
2023/11/14 01:59:50;;;;;;;9.93;4.27;;;11.40;99.90;;;;;;5056545;28;20815;-65
2023/11/14 02:02:18;;;;;;;12.83;3.57;;;11.40;99.90;;;;;;5056150;28;20460;-65
2023/11/14 02:04:48;;;;;;;16.10;3.80;;;11.40;99.90;;;;;;5056064;28;20440;-65
2023/11/14 02:07:17;;;;;;;11.53;3.27;;;11.30;99.90;;;;;;5062130;28;20417;-66
2023/11/14 02:09:44;;;;;;;24.97;5.63;;;11.30;99.90;;;;;;5066063;28;20531;-66
2023/11/14 02:12:11;;;;;;;15.27;4.23;;;11.30;99.90;;;;;;5058976;28;20479;-65
2023/11/14 02:14:38;;;;;;;14.77;4.10;;;11.40;99.90;;;;;;5056141;28;20444;-66
2023/11/14 02:17:05;;;;;;;14.70;3.90;;;11.40;99.90;;;;;;5056031;28;20531;-64
2023/11/14 02:19:32;;;;;;;11.57;3.87;;;11.50;99.90;;;;;;5055520;28;20446;-65
2023/11/14 02:21:59;;;;;;;9.43;4.30;;;11.50;99.90;;;;;;5055583;28;21020;-64
2023/11/14 02:24:29;;;;;;;13.83;3.83;;;11.60;99.90;;;;;;5056281;28;20440;-66
2023/11/14 02:26:58;;;;;;;9.93;3.80;;;11.60;99.90;;;;;;5057978;28;20425;-65
2023/11/14 02:29:26;;;;;;;15.20;3.80;;;11.60;99.90;;;;;;5055913;28;20444;-64
2023/11/14 02:31:53;;;;;;;15.93;5.27;;;11.60;99.90;;;;;;5055383;28;20460;-65
2023/11/14 02:34:20;;;;;;;14.23;4.43;;;11.50;99.90;;;;;;5056406;28;20547;-65
2023/11/14 02:36:47;;;;;;;17.70;4.13;;;11.50;99.90;;;;;;5056128;28;20446;-65
2023/11/14 02:39:13;;;;;;;14.23;3.97;;;11.50;99.90;;;;;;5056171;28;20874;-65
2023/11/14 02:41:41;;;;;;;22.10;6.03;;;11.40;99.90;;;;;;5055590;28;20460;-65
2023/11/14 02:44:09;;;;;;;14.77;5.47;;;11.40;99.90;;;;;;5055551;28;20451;-65
2023/11/14 02:46:37;;;;;;;13.50;4.60;;;11.40;99.90;;;;;;5054922;28;20447;-65
2023/11/14 02:49:23;;;;;;;13.50;4.67;;;11.30;99.90;;;;;;5054962;28;20443;-65
2023/11/14 02:51:49;;;;;;;14.63;4.10;;;11.30;99.90;;;;;;5053770;28;20456;-65
2023/11/14 02:54:16;;;;;;;16.20;5.00;;;11.30;99.90;;;;;;5054856;28;20443;-66
2023/11/14 02:56:43;;;;;;;12.97;3.87;;;11.30;99.90;;;;;;5054936;28;20806;-66
2023/11/14 02:59:11;;;;;;;16.20;5.13;;;11.20;99.90;;;;;;5054550;28;20849;-65
2023/11/14 03:01:38;;;;;;;10.90;3.53;;;11.10;99.90;;;;;;5055425;28;20456;-66
2023/11/14 03:04:05;;;;;;;11.70;3.93;;;10.90;99.90;;;;;;5054497;28;20436;-65
2023/11/14 03:06:31;;;;;;;10.70;4.73;;;10.80;99.90;;;;;;5054737;28;20547;-66
2023/11/14 03:08:57;;;;;;;12.97;3.87;;;10.70;99.90;;;;;;5054659;28;20436;-65
2023/11/14 03:11:24;;;;;;;12.33;3.70;;;10.70;99.90;;;;;;5054209;28;20225;-64
2023/11/14 03:13:51;;;;;;;15.87;4.47;;;10.70;99.90;;;;;;5054383;28;20816;-65
2023/11/14 03:16:19;;;;;;;10.87;4.73;;;10.70;99.90;;;;;;5054440;28;20523;-64
2023/11/14 03:18:46;;;;;;;15.00;4.30;;;10.80;99.90;;;;;;5054355;28;20482;-65
2023/11/14 03:21:15;;;;;;;21.30;4.87;;;10.80;99.90;;;;;;5054212;28;20448;-64
2023/11/14 03:23:42;;;;;;;15.80;3.93;;;10.90;99.90;;;;;;5054209;28;20879;-65
2023/11/14 03:26:09;;;;;;;16.03;3.90;;;11.00;99.90;;;;;;5053757;28;20995;-65
2023/11/14 03:28:36;;;;;;;13.50;4.00;;;11.00;99.90;;;;;;5054196;28;20428;-65
2023/11/14 03:31:03;;;;;;;11.77;4.40;;;11.00;99.90;;;;;;5054172;28;20444;-65
2023/11/14 03:33:31;;;;;;;17.23;5.03;;;11.00;99.90;;;;;;5054038;28;20475;-66
2023/11/14 03:35:58;;;;;;;9.97;4.03;;;11.10;99.90;;;;;;5053912;28;20470;-65
2023/11/14 03:38:25;;;;;;;14.97;3.50;;;11.10;99.90;;;;;;5053861;28;20475;-66
2023/11/14 03:40:51;;;;;;;12.50;4.20;;;11.20;99.90;;;;;;5053682;28;20447;-65
2023/11/14 03:43:19;;;;;;;21.07;4.23;;;11.20;99.90;;;;;;5053847;28;20464;-67
2023/11/14 03:45:45;;;;;;;11.23;4.10;;;11.10;99.90;;;;;;5061112;28;20447;-66
2023/11/14 03:48:12;;;;;;;18.77;3.60;;;11.00;99.90;;;;;;5054487;28;20439;-65
2023/11/14 03:50:41;;;;;;;19.50;4.20;;;10.90;99.90;;;;;;5055042;28;20535;-66
2023/11/14 03:53:07;;;;;;;13.87;4.63;;;10.80;99.90;;;;;;5058338;28;20470;-65
2023/11/14 03:55:34;;;;;;;10.77;3.63;;;10.80;99.90;;;;;;5053427;28;20948;-67
2023/11/14 03:58:01;;;;;;;15.87;3.57;;;10.80;99.90;;;;;;5057837;28;20527;-65
2023/11/14 04:00:27;;;;;;;18.13;4.90;;;10.80;99.90;;;;;;5056428;28;20444;-65
2023/11/14 04:02:54;;;;;;;13.37;4.00;;;10.90;99.90;;;;;;5054437;28;20463;-65
2023/11/14 04:05:21;;;;;;;12.23;3.40;;;10.90;99.90;;;;;;5068425;28;20535;-66
2023/11/14 04:07:49;;;;;;;20.07;4.70;;;11.00;99.90;;;;;;5060762;28;20523;-65
2023/11/14 04:12:32;;;;;;;10.90;3.83;;;11.00;99.90;;;;;;5113804;27;21148;-67
2023/11/14 04:14:59;;;;;;;17.03;4.40;;;11.00;99.90;;;;;;5111671;28;20441;-67
2023/11/14 04:17:26;;;;;;;17.07;5.00;;;11.00;99.90;;;;;;5111316;28;20442;-65
2023/11/14 04:19:53;;;;;;;14.07;3.90;;;10.90;99.90;;;;;;5111339;28;20440;-67
2023/11/14 04:22:19;;;;;;;14.37;5.83;;;10.80;99.90;;;;;;5111220;28;20464;-66
2023/11/14 04:24:46;;;;;;;11.83;3.80;;;10.80;99.90;;;;;;5096349;22;20495;-65
2023/11/14 04:27:13;;;;;;;17.10;4.30;;;10.70;99.90;;;;;;5050054;28;20494;-66
2023/11/14 04:29:41;;;;;;;16.70;4.00;;;10.70;99.90;;;;;;5050083;28;20960;-67
2023/11/14 04:32:08;;;;;;;17.33;4.25;;;10.60;99.90;;;;;;5049772;28;20503;-66
2023/11/14 04:34:35;;;;;;;16.60;4.70;;;10.60;99.90;;;;;;5049888;28;20221;-66
2023/11/14 04:37:01;;;;;;;18.73;4.83;;;10.50;99.90;;;;;;5050039;28;20451;-67
2023/11/14 04:39:29;;;;;;;14.67;4.70;;;10.40;99.90;;;;;;5049956;28;20880;-67
2023/11/14 04:41:56;;;;;;;14.10;4.23;;;10.40;99.90;;;;;;5049969;28;20479;-66
2023/11/14 04:44:23;;;;;;;18.93;5.77;;;10.40;99.90;;;;;;5049862;28;20456;-67
2023/11/14 04:46:51;;;;;;;8.57;3.93;;;10.30;99.90;;;;;;5049758;28;20447;-66
2023/11/14 04:49:18;;;;;;;17.83;4.53;;;10.40;99.90;;;;;;5049373;28;20445;-66
2023/11/14 04:51:45;;;;;;;16.45;4.60;;;10.40;99.90;;;;;;5049517;28;20484;-67
2023/11/14 04:54:11;;;;;;;12.87;4.43;;;10.40;99.90;;;;;;5049933;28;20225;-66
2023/11/14 04:56:38;;;;;;;20.37;5.30;;;10.40;99.90;;;;;;5049862;28;20458;-65
2023/11/14 04:59:05;;;;;;;23.73;6.00;;;10.50;99.90;;;;;;5049964;28;20443;-66
2023/11/14 05:01:32;;;;;;;17.23;4.78;;;10.40;99.90;;;;;;5064742;22;20928;-66
2023/11/14 05:04:00;;;;;;;14.47;5.60;;;10.40;99.90;;;;;;5049552;28;20563;-65
2023/11/14 05:06:27;;;;;;;16.70;5.23;;;10.30;99.90;;;;;;5049734;28;20437;-65
2023/11/14 05:08:54;;;;;;;20.77;5.03;;;10.30;99.90;;;;;;5049909;28;20478;-66
2023/11/14 05:11:21;;;;;;;16.53;5.00;;;10.20;99.90;;;;;;5049981;28;20510;-66
2023/11/14 05:13:48;;;;;;;15.07;4.93;;;10.20;99.90;;;;;;5050087;28;20825;-66
2023/11/14 05:16:15;;;;;;;15.03;4.70;;;10.20;99.90;;;;;;5049595;28;20209;-65
2023/11/14 05:18:42;;;;;;;21.20;5.13;;;10.20;99.90;;;;;;5049402;28;20931;-66
2023/11/14 05:21:10;;;;;;;12.53;3.27;;;10.30;99.90;;;;;;5049497;28;20463;-65
2023/11/14 05:23:36;;;;;;;11.20;3.70;;;10.30;99.90;;;;;;5038042;28;20441;-66
2023/11/14 05:26:04;;;;;;;9.30;3.43;;;10.30;99.90;;;;;;5036291;28;20809;-66
2023/11/14 05:28:30;;;;;;;9.83;2.60;;;10.30;99.90;;;;;;5036419;28;20445;-66
2023/11/14 05:30:57;;;;;;;10.23;2.30;;;10.20;99.90;;;;;;5036454;28;20862;-68
2023/11/14 05:33:24;;;;;;;9.48;2.33;;;10.20;99.90;;;;;;5037423;28;20455;-66
2023/11/14 05:35:51;;;;;;;11.77;2.97;;;10.00;99.90;;;;;;5036269;28;20228;-66
2023/11/14 05:38:20;;;;;;;11.03;2.60;;;10.00;99.90;;;;;;5036621;28;20451;-66
2023/11/14 05:40:47;;;;;;;10.63;3.90;;;9.90;99.90;;;;;;5035927;28;20485;-66
2023/11/14 05:43:14;;;;;;;12.75;3.50;;;9.90;99.90;;;;;;5035839;28;20441;-66
2023/11/14 05:45:41;;;;;;;14.85;4.75;;;9.90;99.90;;;;;;5035850;28;20206;-66
2023/11/14 05:48:08;;;;;;;16.30;4.97;;;9.80;99.90;;;;;;5035779;28;20209;-66
2023/11/14 05:50:35;;;;;;;20.23;5.20;;;9.80;99.90;;;;;;5035433;28;20216;-65
2023/11/14 05:53:02;;;;;;;18.07;6.00;;;9.80;99.90;;;;;;5035992;28;20212;-66
2023/11/14 05:55:30;;;;;;;15.63;5.03;;;9.70;99.90;;;;;;5035376;28;20451;-62
2023/11/14 05:57:56;;;;;;;13.80;5.57;;;9.70;99.90;;;;;;5035943;28;20441;-65
2023/11/14 06:00:24;;;;;;;13.85;4.60;;;9.70;99.90;;;;;;5037084;28;20202;-66
2023/11/14 06:02:52;;;;;;;16.88;4.97;;;9.70;99.90;;;;;;5051434;28;20672;-65
2023/11/14 06:05:19;;;;;;;17.23;4.97;;;9.70;99.90;;;;;;5036534;28;20199;-66
2023/11/14 06:07:46;;;;;;;15.30;4.83;;;9.70;99.90;;;;;;5035549;28;20436;-66
2023/11/14 06:10:13;;;;;;;19.60;5.60;;;9.70;99.90;;;;;;5035274;28;20444;-67
2023/11/14 06:12:41;;;;;;;14.98;4.45;;;9.70;99.90;;;;;;5035507;28;20571;-65
2023/11/14 06:15:09;;;;;;;22.25;5.35;;;9.70;99.90;;;;;;5035411;28;20203;-66
2023/11/14 06:17:35;;;;;;;14.60;4.68;;;9.80;99.90;;;;;;5035391;28;20209;-65
2023/11/14 06:20:05;;;;;;;12.20;4.83;;;9.80;99.90;;;;;;5035039;28;20221;-66
2023/11/14 06:22:32;;;;;;;12.30;4.80;;;9.80;99.90;;;;;;5035473;28;20464;-65
2023/11/14 06:25:00;;;;;;;16.25;4.80;;;9.80;99.90;;;;;;5035316;28;20202;-65
2023/11/14 06:27:27;;;;;;;19.38;5.20;;;9.90;99.90;;;;;;5035115;28;20208;-66
2023/11/14 06:29:56;;;;;;;16.00;5.00;;;10.00;99.90;;;;;;5035509;28;20198;-65
2023/11/14 06:32:24;;;;;;;14.30;5.72;;;10.00;99.90;;;;;;5034777;28;20990;-65
2023/11/14 06:34:51;;;;;;;11.77;3.80;;;10.00;99.90;;;;;;5034178;28;20256;-66
2023/11/14 06:37:19;;;;;;;13.80;4.80;;;10.10;99.90;;;;;;5035445;28;20289;-65
2023/11/14 06:39:46;;;;;;;12.50;3.87;;;10.20;99.90;;;;;;5035213;28;20453;-65
2023/11/14 06:42:13;;;;;;;16.52;4.55;;;10.30;99.90;;;;;;5034989;28;20461;-65
2023/11/14 06:44:43;;;;;;;18.57;4.27;;;10.30;99.90;;;;;;5034974;28;20202;-65
2023/11/14 06:47:12;;;;;;;17.93;4.40;;;10.40;99.90;;;;;;5035269;28;20445;-66
2023/11/14 06:49:38;;;;;;;11.00;3.23;;;10.50;99.90;;;;;;5035141;28;20449;-65
2023/11/14 06:52:05;;;;;;;13.70;4.30;;;10.50;99.90;;;;;;5034564;28;20484;-65
2023/11/14 06:54:32;;;;;;;13.83;3.50;;;10.50;99.90;;;;;;5035014;28;20449;-63
2023/11/14 06:56:59;;;;;;;16.17;3.60;;;10.50;99.90;;;;;;5036354;28;20515;-66
2023/11/14 06:59:26;;;;;;;8.33;3.67;;;10.50;99.90;;;;;;5035520;28;20441;-66
2023/11/14 07:01:53;;;;;;;15.10;3.80;;;10.60;99.90;;;;;;5034543;28;20469;-68
2023/11/14 07:04:21;;;;;;;9.70;3.17;;;10.60;99.90;;;;;;5035755;28;20567;-67
2023/11/14 07:06:48;;;;;;;11.77;3.33;;;10.60;99.90;;;;;;5035130;28;20453;-65
2023/11/14 07:09:15;;;;;;;10.37;3.30;;;10.70;99.90;;;;;;5038964;28;20453;-66
2023/11/14 07:11:42;;;;;;;11.73;3.33;;;10.80;99.90;;;;;;5039774;28;20488;-66
2023/11/14 07:14:09;;;;;;;15.40;3.83;;;10.80;99.90;;;;;;5038865;28;20441;-66
2023/11/14 07:16:36;;;;;;;10.23;3.47;;;10.90;99.90;;;;;;5037849;28;20449;-66
2023/11/14 07:19:03;;;;;;;10.10;3.83;;;11.00;99.90;;;;;;5038590;28;20448;-66
2023/11/14 07:21:32;;;;;;;15.33;4.37;;;11.00;99.90;;;;;;5037327;28;20464;-65
2023/11/14 07:23:59;;;;;;;9.60;3.50;;;11.10;99.90;;;;;;5037893;28;20481;-65
2023/11/14 07:26:26;;;;;;;14.30;4.00;;;11.10;99.90;;;;;;5037808;28;20445;-66
2023/11/14 07:28:53;;;;;;;10.50;3.80;;;11.10;99.90;;;;;;5037803;28;20447;-65
2023/11/14 07:31:19;;;;;;;10.73;4.70;;;11.20;99.90;;;;;;5036042;28;20461;-65
2023/11/14 07:33:46;;;;;;;14.10;4.47;;;11.30;99.90;;;;;;5037351;28;20442;-65
2023/11/14 07:36:13;;;;;;;10.20;3.83;;;11.40;99.90;;;;;;5036730;28;20452;-64
2023/11/14 07:38:43;;;;;;;16.10;3.77;;;11.40;99.90;;;;;;5036914;28;20544;-65
2023/11/14 07:41:10;;;;;;;17.47;3.80;;;11.40;99.90;;;;;;5037384;28;20467;-64
2023/11/14 07:43:37;;;;;;;12.50;4.03;;;11.40;99.90;;;;;;5038344;28;20441;-66
2023/11/14 07:46:05;;;;;;;11.30;4.10;;;11.50;99.90;;;;;;5039396;28;20441;-66
2023/11/14 07:48:32;;;;;;;17.13;4.03;;;11.60;99.90;;;;;;5036605;28;20449;-65
2023/11/14 07:50:59;;;;;;;21.53;4.43;;;11.70;99.90;;;;;;5036232;28;20471;-65
2023/11/14 07:53:26;;;;;;;13.53;4.07;;;11.80;99.90;;;;;;5035912;28;20488;-65
2023/11/14 07:55:54;;;;;;;11.90;4.20;;;11.90;99.90;;;;;;5035938;28;20445;-66
2023/11/14 07:58:23;;;;;;;16.97;3.77;;;11.90;99.90;;;;;;5035006;28;20947;-65
2023/11/14 08:00:51;;;;;;;12.67;3.80;;;12.00;99.90;;;;;;5034485;28;20484;-67
2023/11/14 08:03:18;;;;;;;18.10;4.40;;;12.00;99.90;;;;;;5034047;28;20441;-66
2023/11/14 08:05:45;;;;;;;15.30;4.57;;;12.00;99.90;;;;;;5046090;28;20444;-66
2023/11/14 08:08:13;;;;;;;12.47;3.80;;;12.00;99.90;;;;;;5036495;28;20986;-65
2023/11/14 08:10:40;;;;;;;17.27;4.30;;;12.00;99.90;;;;;;5033598;28;20458;-65
2023/11/14 08:13:09;;;;;;;18.27;3.70;;;12.00;99.90;;;;;;5033211;28;20487;-65
2023/11/14 08:15:35;;;;;;;7.50;3.07;;;12.00;99.90;;;;;;5034257;28;20445;-66
2023/11/14 08:18:02;;;;;;;12.13;3.80;;;12.00;99.90;;;;;;5033032;28;20456;-66
2023/11/14 08:20:29;;;;;;;14.03;3.40;;;12.00;99.90;;;;;;5033261;28;20448;-65
2023/11/14 08:22:56;;;;;;;11.50;4.43;;;12.00;99.90;;;;;;5032963;28;20465;-66
2023/11/14 08:25:23;;;;;;;10.17;3.63;;;12.00;99.90;;;;;;5034199;28;20922;-66
2023/11/14 08:27:49;;;;;;;14.10;3.40;;;12.10;99.90;;;;;;5033874;28;20451;-65
2023/11/14 08:30:18;;;;;;;11.77;3.27;;;12.10;99.90;;;;;;5033582;28;20449;-66
2023/11/14 08:32:45;;;;;;;19.03;5.50;;;12.10;99.90;;;;;;5033845;28;20495;-65
2023/11/14 08:35:12;;;;;;;11.80;3.90;;;12.10;99.90;;;;;;5033857;28;20503;-65
2023/11/14 08:37:38;;;;;;;14.33;3.33;;;12.00;99.90;;;;;;5033812;28;20476;-64
2023/11/14 08:40:09;;;;;;;20.20;4.53;;;12.00;99.90;;;;;;5033481;28;20441;-65
2023/11/14 08:42:37;;;;;;;16.70;4.40;;;12.10;99.90;;;;;;5033404;28;20468;-64
2023/11/14 08:45:04;;;;;;;9.63;3.70;;;12.10;99.90;;;;;;5033596;28;20487;-65
2023/11/14 08:47:32;;;;;;;12.23;3.33;;;12.30;99.90;;;;;;5032885;28;20957;-65
2023/11/14 08:49:59;;;;;;;16.20;3.83;;;12.30;99.90;;;;;;5032919;28;20510;-65
2023/11/14 08:52:27;;;;;;;12.90;3.97;;;12.40;99.90;;;;;;5032632;28;20476;-65
2023/11/14 08:54:53;;;;;;;11.53;3.67;;;12.30;99.90;;;;;;5033414;28;20492;-63
2023/11/14 08:57:20;;;;;;;13.80;3.93;;;12.20;99.90;;;;;;5033422;28;20456;-67
2023/11/14 08:59:47;;;;;;;11.10;3.70;;;12.20;99.90;;;;;;5037092;28;20444;-65
2023/11/14 09:02:14;;;;;;;10.73;3.60;;;12.10;99.90;;;;;;5037692;28;20473;-65
2023/11/14 09:04:42;;;;;;;12.40;3.90;;;12.10;99.90;;;;;;5037241;28;20885;-67
2023/11/14 09:07:08;;;;;;;15.50;5.10;;;12.20;99.90;;;;;;5037399;28;20813;-64
2023/11/14 09:09:35;;;;;;;10.40;3.80;;;12.20;99.90;;;;;;5037091;28;20954;-65
2023/11/14 09:12:02;;;;;;;14.17;3.30;;;12.30;99.90;;;;;;5036687;28;20487;-64
2023/11/14 09:14:29;;;;;;;8.53;2.90;;;12.40;99.90;;;;;;5037159;28;20440;-65
2023/11/14 09:16:56;;;;;;;15.97;4.70;;;12.30;99.90;;;;;;5036453;28;20439;-64
2023/11/14 09:19:24;;;;;;;16.13;3.90;;;12.30;99.90;;;;;;5036504;28;20455;-65
2023/11/14 09:21:52;;;;;;;13.40;4.60;;;12.30;99.90;;;;;;5037064;28;20469;-65
2023/11/14 09:24:20;;;;;;;10.23;3.33;;;12.20;99.90;;;;;;5037130;28;20813;-66
2023/11/14 09:26:46;;;;;;;15.63;4.13;;;12.30;99.90;;;;;;5037169;28;20503;-65
2023/11/14 09:29:14;;;;;;;12.83;4.80;;;12.30;99.90;;;;;;5037210;28;20437;-66
2023/11/14 09:31:41;;;;;;;7.83;3.37;;;12.20;99.90;;;;;;5036914;28;20514;-65
2023/11/14 09:34:08;;;;;;;17.87;4.77;;;12.30;99.90;;;;;;5036703;28;20442;-66
2023/11/14 09:36:35;;;;;;;18.53;3.77;;;12.30;99.90;;;;;;5036424;28;20484;-65
2023/11/14 09:39:03;;;;;;;13.30;5.20;;;12.40;99.90;;;;;;5036076;28;20903;-65
2023/11/14 09:41:32;;;;;;;9.40;4.30;;;12.50;99.90;;;;;;5035967;28;20473;-66
2023/11/14 09:44:00;;;;;;;13.37;4.30;;;12.50;99.90;;;;;;5035470;28;20931;-67
2023/11/14 09:46:29;;;;;;;15.03;3.90;;;12.60;99.90;;;;;;5035097;28;20951;-66
2023/11/14 09:48:57;;;;;;;12.63;4.33;;;12.70;99.90;;;;;;5036347;28;20887;-66
2023/11/14 09:51:25;;;;;;;7.33;3.43;;;12.80;99.90;;;;;;5035616;28;20514;-65
2023/11/14 09:53:54;;;;;;;9.40;2.97;;;12.90;99.90;;;;;;5035838;28;20829;-64
2023/11/14 09:56:22;;;;;;;11.47;3.77;;;13.00;99.90;;;;;;5035900;28;20445;-66
2023/11/14 09:58:50;;;;;;;12.10;3.63;;;13.00;99.90;;;;;;5035697;28;20452;-66
2023/11/14 10:01:16;;;;;;;8.53;3.37;;;13.10;99.90;;;;;;5035388;28;20995;-65
2023/11/14 10:03:43;;;;;;;10.90;3.40;;;13.00;99.90;;;;;;5036389;28;20768;-66
2023/11/14 10:06:10;;;;;;;13.67;3.90;;;12.80;99.90;;;;;;5035900;28;20441;-67
2023/11/14 10:08:37;;;;;;;14.30;4.37;;;12.70;99.90;;;;;;5035765;28;20456;-66
2023/11/14 10:11:05;;;;;;;19.70;5.77;;;12.40;99.90;;;;;;5037878;28;20457;-66
2023/11/14 10:13:34;;;;;;;14.63;4.07;;;12.10;99.90;;;;;;5048856;28;20480;-67
2023/11/14 10:16:16;;;;;;;15.20;4.60;;;11.90;99.90;;;;;;5036698;28;20808;-66
2023/11/14 10:18:43;;;;;;;16.40;4.97;;;11.70;99.90;;;;;;5036024;28;20880;-66
2023/11/14 10:21:27;;;;;;;18.07;4.40;;;11.70;99.90;;;;;;5035864;28;20465;-67
2023/11/14 10:23:55;;;;;;;8.17;3.33;;;11.70;99.90;;;;;;5035678;28;20420;-66
2023/11/14 10:26:22;;;;;;;14.13;4.37;;;11.80;99.90;;;;;;5035196;28;20848;-66
2023/11/14 10:28:54;;;;;;;11.20;3.63;;;11.80;99.90;;;;;;5035767;28;20452;-66
2023/11/14 10:31:38;;;;;;;19.07;4.47;;;11.90;99.90;;;;;;5035487;28;20464;-66
2023/11/14 10:34:06;;;;;;;14.70;4.00;;;12.00;99.90;;;;;;5035687;28;20476;-65
2023/11/14 10:36:46;;;;;;;11.77;4.57;;;12.10;99.90;;;;;;5037768;28;20437;-66
2023/11/14 10:39:13;;;;;;;13.60;4.00;;;12.20;99.90;;;;;;5037928;28;20422;-64
2023/11/14 10:41:40;;;;;;;17.80;4.60;;;12.30;99.90;;;;;;5037198;28;20461;-65
2023/11/14 10:44:09;;;;;;;15.40;4.20;;;12.40;99.90;;;;;;5036053;28;20791;-64
2023/11/14 10:46:36;;;;;;;14.13;4.00;;;12.40;99.90;;;;;;5034739;28;20445;-65
2023/11/14 10:49:08;;;;;;;15.07;4.20;;;12.40;99.90;;;;;;5035133;28;20439;-66
2023/11/14 10:51:37;;;;;;;13.30;3.80;;;12.50;99.90;;;;;;5035556;28;20483;-66
2023/11/14 10:54:06;;;;;;;12.03;4.53;;;12.40;99.90;;;;;;5035070;28;20487;-66
2023/11/14 10:56:34;;;;;;;16.20;5.00;;;12.40;99.90;;;;;;5035341;28;20449;-67
2023/11/14 10:59:03;;;;;;;13.63;4.50;;;12.30;99.90;;;;;;5034759;28;20503;-66
2023/11/14 11:01:33;;;;;;;14.57;4.47;;;12.40;99.90;;;;;;5034079;28;20507;-65
2023/11/14 11:04:01;;;;;;;19.67;4.77;;;12.30;99.90;;;;;;5034153;28;20443;-66
2023/11/14 11:06:28;;;;;;;11.73;3.33;;;12.30;99.90;;;;;;5034727;28;20437;-66
2023/11/14 11:08:55;;;;;;;18.30;4.67;;;12.30;99.90;;;;;;5034045;28;20985;-65
2023/11/14 11:11:26;;;;;;;15.63;4.73;;;12.30;99.90;;;;;;5034074;28;20467;-65
2023/11/14 11:13:53;;;;;;;11.63;3.97;;;12.40;99.90;;;;;;5033862;28;20477;-65
2023/11/14 11:16:46;;;;;;;11.17;3.97;;;12.60;99.90;;;;;;5034027;28;20816;-65
2023/11/14 11:19:24;;;;;;;16.00;4.73;;;12.80;99.90;;;;;;5035011;28;20422;-64
2023/11/14 11:22:03;;;;;;;13.20;4.60;;;12.90;99.90;;;;;;5034851;28;20457;-64
2023/11/14 11:24:30;;;;;;;14.60;4.00;;;13.00;99.90;;;;;;5035401;28;20460;-65
2023/11/14 11:27:15;;;;;;;12.77;5.10;;;13.00;99.90;;;;;;5034408;28;20445;-64
2023/11/14 11:29:45;;;;;;;9.43;3.60;;;13.20;99.90;;;;;;5034514;28;20452;-65
2023/11/14 11:32:34;;;;;;;16.23;4.20;;;13.30;99.90;;;;;;5034022;28;20457;-65
2023/11/14 11:35:27;;;;;;;15.63;5.30;;;13.30;99.90;;;;;;5034076;28;20462;-65
2023/11/14 11:37:55;;;;;;;11.93;3.37;;;13.40;99.90;;;;;;5034525;28;20445;-66
2023/11/14 11:40:25;;;;;;;12.03;3.47;;;13.50;99.90;;;;;;5034750;28;20441;-65
2023/11/14 11:42:54;;;;;;;15.00;4.20;;;13.50;99.90;;;;;;5034445;28;20453;-66
2023/11/14 11:45:31;;;;;;;13.43;3.87;;;13.50;99.90;;;;;;5034040;28;20831;-66
2023/11/14 11:48:00;;;;;;;11.10;3.43;;;13.60;99.90;;;;;;5033884;28;20884;-66
2023/11/14 11:50:27;;;;;;;12.03;4.90;;;13.60;99.90;;;;;;5033838;28;20451;-64
2023/11/14 11:53:05;;;;;;;12.37;3.50;;;13.60;99.90;;;;;;5033877;28;20833;-66
2023/11/14 11:55:32;;;;;;;15.80;3.80;;;13.60;99.90;;;;;;5034054;28;20425;-63
2023/11/14 11:58:01;;;;;;;12.83;4.87;;;13.60;99.90;;;;;;5033784;28;20441;-66
2023/11/14 12:00:29;;;;;;;12.77;3.13;;;13.70;99.90;;;;;;5034443;28;20541;-66
2023/11/14 12:03:01;;;;;;;11.77;3.40;;;13.70;99.90;;;;;;5033468;28;20995;-65
2023/11/14 12:05:28;;;;;;;11.40;3.00;;;13.70;99.90;;;;;;5034507;28;20440;-66
2023/11/14 12:07:56;;;;;;;12.57;3.60;;;13.70;99.90;;;;;;5033858;28;20931;-65
2023/11/14 12:10:24;;;;;;;12.10;3.53;;;13.70;99.90;;;;;;5034774;28;20445;-66
2023/11/14 12:12:56;;;;;;;8.30;3.57;;;13.70;99.90;;;;;;5034311;28;20555;-64
2023/11/14 12:15:23;;;;;;;11.20;3.47;;;13.70;99.90;;;;;;5034199;28;20452;-66
2023/11/14 12:17:54;;;;;;;12.00;3.67;;;13.70;99.90;;;;;;5034907;28;20441;-65
2023/11/14 12:20:23;;;;;;;7.97;3.27;;;13.70;99.90;;;;;;5043904;28;20422;-65
2023/11/14 12:22:52;;;;;;;7.87;3.00;;;13.70;99.90;;;;;;5040274;28;20815;-66
2023/11/14 12:25:19;;;;;;;12.70;3.60;;;13.70;99.90;;;;;;5035874;28;20455;-65
2023/11/14 12:27:50;;;;;;;10.80;3.83;;;13.80;99.90;;;;;;5035541;28;20447;-64
2023/11/14 12:30:17;;;;;;;7.77;3.70;;;13.80;99.90;;;;;;5036292;28;20452;-65
2023/11/14 12:32:44;;;;;;;10.10;3.27;;;13.80;99.90;;;;;;5040219;28;20579;-65
2023/11/14 12:35:10;;;;;;;9.07;3.60;;;13.70;99.90;;;;;;5040666;28;20944;-66
2023/11/14 12:37:39;;;;;;;9.53;3.50;;;13.60;99.90;;;;;;5039763;28;20451;-66
2023/11/14 12:40:09;;;;;;;13.70;3.87;;;13.60;99.90;;;;;;5040077;28;20441;-65
2023/11/14 12:42:37;;;;;;;9.30;3.57;;;13.60;99.90;;;;;;5039881;28;20525;-63
2023/11/14 12:45:07;;;;;;;10.03;2.30;;;13.60;99.90;;;;;;5039060;28;20429;-65